Thursday, November 23, 2017, 2:08 AM EST
Back to Local

KMDT, Harrisburg International Airport

Location: Middletown, PA, United States Lat: 40.2
Local Time: 2:08 AM EST ( 7:08 GMT) Lon: -76.767
Time Zone: US/Eastern Elev: 308 ft

Show me the last for .
Show Decoded

2017-11-23 00:56 METAR KMDT 230556Z 33004KT 10SM FEW041 01/M07 A3016 RMK AO2 SLP215 T00061067
                 10044 20006 56002 =
2017-11-22 23:56 METAR KMDT 230456Z 32009KT 10SM FEW043 01/M07 A3016 RMK AO2 SLP216 T00111067
                 401110011 =
2017-11-22 22:56 METAR KMDT 230356Z 33009KT 10SM FEW043 02/M06 A3016 RMK AO2 SLP215 T00171061 =
2017-11-22 21:56 METAR KMDT 230256Z 32011KT 10SM BKN044 03/M06 A3016 RMK AO2 SLP216 T00281061
                 53010 =
2017-11-22 20:56 METAR KMDT 230156Z 32017KT 10SM SCT044 03/M06 A3014 RMK AO2 SLP210 T00281056 =
2017-11-22 19:56 METAR KMDT 230056Z 32014G20KT 10SM BKN045 03/M06 A3014 RMK AO2 SLP211 T00331056
                 =
2017-11-22 18:56 METAR KMDT 222356Z 34014KT 10SM BKN046 04/M06 A3013 RMK AO2 SLP207 T00441056
                 10094 20044 51022 =
2017-11-22 17:56 METAR KMDT 222256Z 33012KT 10SM BKN049 05/M05 A3012 RMK AO2 SLP202 T00501050 =
2017-11-22 16:56 METAR KMDT 222156Z 31016G22KT 10SM BKN048 06/M04 A3009 RMK AO2 SLP193 T00611039
                 =
2017-11-22 15:56 METAR KMDT 222056Z 33012G19KT 10SM BKN047 07/M03 A3007 RMK AO2 SLP184 T00721033
                 53019 =
2017-11-22 14:56 METAR KMDT 221956Z 32015G23KT 10SM BKN049 08/M02 A3003 RMK AO2 PK WND 33026/1923
                 SLP173 T00781022 =
2017-11-22 13:56 METAR KMDT 221856Z 32015G23KT 10SM OVC049 08/M02 A3002 RMK AO2 PK WND 31026/1800
                 SLP170 T00831022 =
2017-11-22 12:56 METAR KMDT 221756Z 32016G23KT 10SM OVC050 09/M02 A3001 RMK AO2 PK WND 33031/1737
                 SLP165 T00941022 10111 20056 51012 =
2017-11-22 11:56 METAR KMDT 221656Z 30019G29KT 10SM BKN047 11/M01 A2999 RMK AO2 PK WND 29029/1647
                 SLP158 T01061006 =
2017-11-22 10:56 METAR KMDT 221556Z 30019G28KT 10SM SCT040 10/01 A3000 RMK AO2 PK WND 30032/1521
                 SLP160 T01000006 =
2017-11-22 09:56 METAR KMDT 221456Z 31020G26KT 10SM SCT040 11/02 A2997 RMK AO2 PK WND 31030/1409
                 SLP151 T01060017 53013 =
2017-11-22 08:56 METAR KMDT 221356Z 30007KT 10SM SCT110 BKN250 09/04 A2996 RMK AO2 SLP149
                 T00940039 =
2017-11-22 07:56 METAR KMDT 221256Z 31009KT 10SM BKN100 OVC110 07/04 A2994 RMK AO2 SLP141
                 T00670039 =
2017-11-22 06:56 METAR KMDT 221156Z 36004KT 10SM SCT065 OVC090 06/03 A2993 RMK AO2 RAB42E51
                 SLP139 P0000 60000 T00610033 10061 20017 53007 =
2017-11-22 05:56 METAR KMDT 221056Z 33007KT 9SM SCT060 OVC080 05/03 A2991 RMK AO2 SLP131
                 T00500033 =
2017-11-22 04:56 METAR KMDT 220956Z 00000KT 10SM BKN110 03/02 A2990 RMK AO2 SLP127 T00330022 =
2017-11-22 03:56 METAR KMDT 220856Z 00000KT 10SM FEW080 BKN100 05/03 A2991 RMK AO2 SLP131
                 T00500028 56011 =
2017-11-22 02:56 METAR KMDT 220756Z 30003KT 10SM SCT080 BKN100 04/02 A2992 RMK AO2 SLP134
                 T00390022 =

Support USWX by starting your Amazon purchase here.